Sedgwick Reserve, California Weather observations

Data are for 10 minute period ending at time listed.
 Day   Time   Solar   Ave.   Ave.  Ave.  Vector  Max.   Baro.   Total    
  of    of     Rad.   Air    Rel.  Wind   Wind   Wind  Press.  Precip.   
Year   Day            Temp.  Hum.  Speed  Dir.   Gust                    
2015   (PST)  Kw/m2    F      %     mph   deg.    mph    mb.     in.     
-------------------------------------------------------------------------
 115   21:20   0.00   51.2    77   10.2   289    16.6   972.7    0.00 
 115   21:30   0.00   51.4    76   11.0   284    16.1   972.6    0.00 
 115   21:40   0.00   51.1    77   10.4   284    15.0   972.5    0.00 
 115   21:50   0.00   51.3    76   11.3   290    16.6   972.5    0.00 
 115   22:00   0.00   51.2    75   11.3   288    17.7   972.4    0.00 
 115   22:10   0.00   51.2    75   11.8   292    17.0   972.4    0.00 
 115   22:20   0.00   51.0    75   10.2   288    16.4   972.3    0.00 
 115   22:30   0.00   51.2    74   10.1   291    14.2   972.3    0.00 
 115   22:40   0.00   51.7    71   10.0   294    15.1   972.3    0.00 
 115   22:50   0.00   52.3    69    9.0   290    16.2   972.3    0.00 
 115   23:00   0.00   51.4    73   10.2   282    18.4   972.4    0.00 
 115   23:10   0.00   50.8    75    9.9   286    15.1   972.4    0.00 
 115   23:20   0.00   50.6    75    9.8   295    14.8   972.4    0.00 
 115   23:30   0.00   51.2    73   10.8   295    15.1   972.3    0.00 
 115   23:40   0.00   51.7    71   13.3   296    18.6   972.3    0.00 
 115   23:50   0.00   51.6    72   13.9   297    18.3   972.3    0.00 
 116    0:00   0.00   51.4    72   12.8   292    17.4   972.5    0.00 
 116    0:10   0.00   50.6    75   12.9   292    18.5   972.5    0.00 
 116    0:20   0.00   50.1    77   12.3   291    17.6   972.6    0.00 
 116    0:30   0.00   50.0    77   12.5   298    18.0   972.4    0.00 
 116    0:40   0.00   50.0    76   11.2   298    16.8   972.4    0.00 
 116    0:50   0.00   50.6    74   12.3   293    18.1   972.3    0.00 
 116    1:00   0.00   51.2    73   11.9   290    16.7   972.3    0.00 
 116    1:10   0.00   50.4    76   10.6   296    16.3   972.2    0.00 
 116    1:20   0.00   50.3    75    7.9   302    13.4   972.2    0.00 
 116    1:30   0.00   50.2    76    9.2   298    14.1   972.2    0.00 
 116    1:40   0.00   49.9    76    6.1   314    11.0   972.4    0.00 
 116    1:50   0.00   49.9    76    8.7   304    17.0   972.4    0.00 
 116    2:00   0.00   49.9    76    6.1   322    12.7   972.5    0.00 
 116    2:10   0.00   49.8    76    8.4   313    13.9   972.6    0.00 
 116    2:20   0.00   49.5    76    6.6   323    11.6   972.6    0.00 
 116    2:30   0.00   49.0    78    5.3   340     9.9   972.6    0.00 
 116    2:40   0.00   48.4    79    6.9   327    13.9   972.5    0.00 
 116    2:50   0.00   48.2    79    5.4   340    12.1   972.5    0.00 
 116    3:00   0.00   47.3    82    3.7   348     7.3   972.6    0.00 
 116    3:10   0.00   47.0    84    3.5   355     6.9   972.6    0.00 
 116    3:20   0.00   46.9    84    3.7   342     9.9   972.6    0.00 
 116    3:30   0.00   46.8    84    2.7    32     6.6   972.7    0.00 
 116    3:40   0.00   46.2    84    2.1   151     4.7   972.9    0.00 
 116    3:50   0.00   45.3    87    1.8   106     4.3   973.0    0.00 
 116    4:00   0.00   45.2    87    2.6   130     4.5   973.0    0.00 
 116    4:10   0.00   44.5    89    3.4   124     6.1   973.1    0.00 
 116    4:20   0.00   44.3    90    2.2   122     3.9   973.2    0.00 
 116    4:30   0.00   44.0    91    1.1   102     2.6   973.4    0.00 
 116    4:40   0.00   43.7    92    0.3   128     1.2   973.5    0.00 
 116    4:50   0.00   42.7    92    0.5   325     2.1   973.6    0.00 
 116    5:00   0.00   42.6    93    0.7   233     2.0   973.7    0.00 
 116    5:10   0.00   42.1    93    0.8   180     2.6   973.9    0.00 
 116    5:20   0.00   41.8    94    1.4    91     2.3   974.1    0.00 
 116    5:30   0.01   41.9    94    0.7    34     1.7   974.3    0.00 
 116    5:40   0.01   41.8    94    0.4   249     1.7   974.4    0.00 
 116    5:50   0.03   41.6    94    0.9     2     3.8   974.5    0.00 
 116    6:00   0.08   41.6    95    1.0   355     2.9   974.6    0.00 
 116    6:10   0.11   42.6    93    1.3   356     3.4   974.7    0.00 
 116    6:20   0.14   43.9    90    1.7   360     3.9   974.8    0.00 
 116    6:30   0.16   44.5    88    3.1     2     5.0   974.9    0.00 
 116    6:40   0.20   46.6    86    1.9    22     3.7   974.9    0.00 
 116    6:50   0.24   48.7    82    0.8    44     3.1   975.0    0.00 
 116    7:00   0.28   50.0    78    1.5    79     3.5   975.0    0.00 
 116    7:10   0.29   50.4    77    2.3    76     3.7   975.0    0.00 
 116    7:20   0.34   50.7    76    2.6    87     3.7   975.1    0.00 
 116    7:30   0.37   51.2    75    2.1   115     4.5   975.0    0.00 
 116    7:40   0.40   51.8    74    2.5    94     4.4   975.0    0.00 
 116    7:50   0.44   53.0    72    2.6    81     5.0   974.9    0.00 
 116    8:00   0.47   53.9    70    2.3   124     5.2   974.7    0.00 
 116    8:10   0.50   53.9    69    2.2   100     5.2   974.7    0.00 
 116    8:20   0.54   55.5    67    2.7   113     5.8   974.7    0.00 
 116    8:30   0.57   56.6    65    2.7   104     5.8   974.8    0.00 
 116    8:40   0.60   56.8    64    3.5   142     7.5   974.8    0.00 
 116    8:50   0.62   56.3    63    4.3   144     6.8   974.8    0.00 
 116    9:00   0.65   59.5    59    2.4    92     5.3   974.9    0.00 
 116    9:10   0.68   59.5    55    7.1   224    12.9   974.9    0.00 
 116    9:20   0.70   59.1    54    6.4   235    11.8   975.0    0.00 
 116    9:30   0.73   59.7    53    5.9   229    11.1   975.1    0.00 
 116    9:40   0.76   61.3    51    5.5   256    12.6   975.2    0.00 
 116    9:50   0.77   61.8    50    6.8   253    12.1   975.1    0.00 
 116   10:00   0.80   62.3    48    6.7   264    13.2   975.1    0.00 
 116   10:10   0.81   63.0    47    7.0   278    12.6   975.0    0.00 
 116   10:20   0.84   64.6    45    6.3   304    12.6   975.0    0.00 
 116   10:30   0.85   64.9    44    8.3   300    14.2   975.0    0.00 
 116   10:40   0.86   65.6    42    6.7   254    12.3   975.0    0.00 
 116   10:50   0.88   66.0    41    8.0   244    15.4   974.8    0.00 
 116   11:00   0.88   66.8    39   12.1   258    20.0   974.6    0.00 
 116   11:10   0.89   67.2    38   11.9   267    20.5   974.5    0.00 
 116   11:20   0.86   69.0    36   10.3   285    17.1   974.3    0.00 
 116   11:30   0.90   68.8    36   12.3   275    22.1   974.3    0.00 
 116   11:40   0.92   68.1    36   16.4   272    25.7   974.1    0.00 
 116   11:50   0.91   68.6    36   16.1   278    23.7   973.9    0.00 
 116   12:00   0.91   69.5    34   14.8   282    24.8   974.0    0.00 
 116   12:10   0.87   69.5    34   15.1   279    23.5   973.9    0.00 
 116   12:20   0.90   69.8    34   15.5   280    24.8   973.9    0.00 
 116   12:30   0.89   71.0    34   13.5   286    25.1   973.9    0.00 
 116   12:40   0.89   71.4    33   13.1   292    21.0   973.8    0.00 
 116   12:50   0.88   71.6    32   13.1   282    20.8   973.8    0.00 
 116   13:00   0.89   72.2    32   13.8   284    22.4   973.8    0.00 
 116   13:10   0.87   70.8    34   17.1   275    25.9   973.8    0.00 
 116   13:20   0.87   70.5    34   14.2   262    22.6   973.7    0.00 
 116   13:30   0.84   71.6    32   14.1   264    23.6   973.6    0.00 
 116   13:40   0.84   71.7    31   13.8   277    23.9   973.6    0.00 
 116   13:50   0.83   71.0    33   16.2   270    26.2   973.3    0.00 
 116   14:00   0.81   70.3    35   16.7   271    25.6   973.2    0.00 
 116   14:10   0.79   70.8    34   16.6   281    24.4   973.2    0.00 
 116   14:20   0.77   70.6    35   16.0   274    24.2   973.1    0.00 
 116   14:30   0.73   69.7    36   16.7   270    27.8   973.0    0.00 
 116   14:40   0.72   70.6    35   12.8   279    21.7   973.0    0.00 
 116   14:50   0.69   70.1    36   14.8   279    23.7   973.0    0.00 
 116   15:00   0.64   69.9    36   14.6   275    22.4   972.9    0.00 
 116   15:10   0.64   69.5    37   16.0   280    25.7   972.9    0.00 
 116   15:20   0.61   68.8    38   16.6   280    28.3   972.9    0.00 
 116   15:30   0.58   69.2    38   13.8   280    28.6   972.9    0.00 
 116   15:40   0.56   68.4    39   13.9   275    24.6   972.9    0.00 
 116   15:50   0.52   66.9    41   18.3   273    26.3   972.7    0.00 
 116   16:00   0.49   66.8    41   17.6   272    25.5   972.7    0.00 
 116   16:10   0.45   66.5    42   17.2   271    27.7   972.6    0.00 
 116   16:20   0.42   66.7    43   15.4   277    27.0   972.7    0.00 
 116   16:30   0.39   65.5    45   17.9   275    28.9   972.8    0.00 
 116   16:40   0.35   65.1    45   16.0   277    25.9   972.7    0.00 
 116   16:50   0.32   65.0    45   16.2   285    24.3   972.7    0.00 
 116   17:00   0.28   64.7    44   13.1   282    23.1   972.7    0.00 
 116   17:10   0.23   64.4    44   13.1   288    24.0   972.6    0.00 
 116   17:20   0.22   64.0    45   14.3   288    24.5   972.6    0.00 
 116   17:30   0.17   63.8    46   11.7   284    21.8   972.7    0.00 
 116   17:40   0.14   63.1    50   11.8   292    18.9   972.8    0.00 
 116   17:50   0.13   62.5    52   10.9   292    17.6   972.8    0.00 
 116   18:00   0.10   61.8    53    9.9   283    17.8   972.7    0.00 
 116   18:10   0.07   60.7    56   11.6   293    19.9   972.8    0.00 
 116   18:20   0.05   59.8    59    9.9   302    18.0   972.8    0.00 
 116   18:30   0.02   58.9    62    7.8   314    14.2   972.9    0.00 
 116   18:40   0.01   58.0    64    5.8   350    10.7   973.0    0.00 
 116   18:50   0.00   57.4    66    3.8   336     7.6   973.1    0.00 
 116   19:00   0.00   56.9    67    2.6   246     6.9   973.1    0.00 
 116   19:10   0.00   56.3    69    2.5   282     7.4   973.3    0.00 
 116   19:20   0.00   55.7    73    3.2   265     5.9   973.4    0.00 
 116   19:30   0.00   55.3    73    1.5   303     2.9   973.6    0.00 
 116   19:40   0.00   54.6    74    0.9    15     3.7   973.7    0.00 
 116   19:50   0.00   53.3    77    1.5    51     3.9   973.8    0.00 
 116   20:00   0.00   52.8    78    2.2   124     3.7   973.9    0.00 
 116   20:10   0.00   52.2    79    2.2   132     3.4   974.1    0.00 
 116   20:20   0.00   51.8    80    0.9   112     2.4   974.2    0.00 
 116   20:30   0.00   51.4    82    1.6     1     3.1   974.2    0.00 
 116   20:40   0.00   51.0    82    2.9   349     7.2   974.2    0.00 
 116   20:50   0.00   49.3    86    4.1   347     8.8   974.1    0.00 
 116   21:00   0.00   49.4    86    6.0   352    16.4   973.9    0.00 
 116   21:10   0.00   53.4    73    8.6   355    18.7   973.6    0.00 

Return to Sedgwick Reserve graphs page.


Western Regional Climate Center,wrcc@dri.edu